Time;durP1;ratioP1;P1;durP2;ratioP2;P2;SDS_P1;SDS_P2;PMS_P1;PMS_P2;Temp;Humidity;BMP_temperature;BMP_pressure;BME280_temperature;BME280_humidity;BME280_pressure;Samples;Min_cycle;Max_cycle;Signal;HPM_P1;HPM_P2
2023/09/25 00:02:07;;;;;;;5.63;3.15;;;10.30;99.90;;;;;;10143860;29;20204;-92
2023/09/25 00:07:10;;;;;;;5.55;3.35;;;10.30;99.90;;;;;;10178498;29;20208;-92
2023/09/25 00:12:12;;;;;;;3.30;3.00;;;10.30;99.90;;;;;;10179389;29;20209;-92
2023/09/25 00:17:15;;;;;;;2.22;2.03;;;10.40;99.90;;;;;;10164867;29;20224;-93
2023/09/25 00:22:18;;;;;;;2.45;2.15;;;10.40;99.90;;;;;;10180790;29;20241;-93
2023/09/25 00:27:21;;;;;;;4.30;2.63;;;10.40;99.90;;;;;;10180333;29;20236;-92
2023/09/25 00:32:24;;;;;;;3.25;2.72;;;10.40;99.90;;;;;;10163832;29;20208;-92
2023/09/25 00:37:27;;;;;;;4.07;3.13;;;10.50;99.90;;;;;;10164015;29;20221;-93
2023/09/25 00:42:29;;;;;;;8.55;3.20;;;10.60;99.90;;;;;;10163483;29;20192;-92
2023/09/25 00:47:32;;;;;;;4.05;3.15;;;10.20;99.90;;;;;;10163128;29;20189;-92
2023/09/25 00:52:37;;;;;;;3.03;2.72;;;10.10;99.90;;;;;;10162515;29;20228;-91
2023/09/25 00:57:40;;;;;;;5.80;3.55;;;10.10;99.90;;;;;;10162593;29;20228;-92
2023/09/25 01:02:43;;;;;;;5.00;3.58;;;10.10;99.90;;;;;;10162948;29;20204;-91
2023/09/25 01:07:45;;;;;;;3.80;3.05;;;10.30;99.90;;;;;;10179440;29;20216;-92
2023/09/25 01:12:50;;;;;;;4.75;2.90;;;10.60;99.90;;;;;;10162642;29;20189;-92
2023/09/25 01:17:52;;;;;;;3.78;3.05;;;10.50;99.90;;;;;;10183941;29;20203;-92
2023/09/25 01:22:56;;;;;;;3.53;3.22;;;10.40;99.90;;;;;;10153479;29;20268;-92
2023/09/25 01:27:59;;;;;;;3.92;3.00;;;10.30;99.90;;;;;;10169382;29;20188;-92
2023/09/25 01:33:02;;;;;;;6.07;3.85;;;10.30;99.90;;;;;;10168455;29;20217;-92
2023/09/25 01:38:05;;;;;;;4.78;3.53;;;10.20;99.90;;;;;;10169386;29;20248;-92
2023/09/25 01:43:08;;;;;;;4.05;3.65;;;10.20;99.90;;;;;;10168754;29;20215;-92
2023/09/25 01:48:11;;;;;;;3.00;2.63;;;10.30;99.90;;;;;;10168019;29;20204;-92
2023/09/25 01:53:14;;;;;;;4.13;3.63;;;10.20;99.90;;;;;;10152918;29;20194;-93
2023/09/25 01:58:16;;;;;;;8.75;3.70;;;10.10;99.90;;;;;;10153027;29;20223;-92
2023/09/25 02:03:19;;;;;;;5.10;4.57;;;10.20;99.90;;;;;;10168889;29;20212;-92
2023/09/25 02:08:22;;;;;;;5.22;4.05;;;10.20;99.90;;;;;;10185527;29;20196;-91
2023/09/25 02:13:25;;;;;;;3.42;3.13;;;10.20;99.90;;;;;;10152031;29;20237;-91
2023/09/25 02:18:28;;;;;;;5.20;4.68;;;10.10;99.90;;;;;;10138484;29;20217;-92
2023/09/25 02:23:31;;;;;;;5.47;4.60;;;10.30;99.90;;;;;;10164486;29;20212;-92
2023/09/25 02:28:34;;;;;;;5.53;3.92;;;10.80;99.90;;;;;;10150173;29;20244;-91
2023/09/25 02:33:37;;;;;;;5.28;4.78;;;10.70;99.90;;;;;;10181988;29;20213;-91
2023/09/25 02:38:40;;;;;;;4.65;3.97;;;10.50;99.90;;;;;;10167197;29;20257;-92
2023/09/25 02:43:42;;;;;;;4.38;3.85;;;10.20;99.90;;;;;;10166133;29;20197;-92
2023/09/25 02:48:45;;;;;;;5.30;4.80;;;10.30;99.90;;;;;;10166549;29;20212;-92
2023/09/25 02:53:47;;;;;;;5.10;4.60;;;10.20;99.90;;;;;;10165079;29;20220;-92
2023/09/25 02:58:50;;;;;;;6.95;4.22;;;10.10;99.90;;;;;;10150658;29;20220;-92
2023/09/25 03:03:53;;;;;;;5.55;5.00;;;10.10;99.90;;;;;;10166232;29;20212;-92
2023/09/25 03:08:55;;;;;;;4.80;4.18;;;10.10;99.90;;;;;;10165474;29;20209;-92
2023/09/25 03:13:58;;;;;;;5.63;4.82;;;10.20;99.90;;;;;;10150102;29;20216;-92
2023/09/25 03:19:01;;;;;;;5.65;5.05;;;10.50;99.90;;;;;;10164599;29;20260;-91
2023/09/25 03:24:03;;;;;;;6.40;3.95;;;10.30;99.90;;;;;;10163918;29;20231;-92
2023/09/25 03:29:06;;;;;;;5.15;4.50;;;10.30;99.90;;;;;;10179259;29;20205;-92
2023/09/25 03:34:09;;;;;;;4.35;3.72;;;10.30;99.90;;;;;;10163281;29;20232;-92
2023/09/25 03:39:11;;;;;;;8.70;5.85;;;10.40;99.90;;;;;;10162773;29;20212;-92
2023/09/25 03:44:14;;;;;;;6.32;4.80;;;10.30;99.90;;;;;;10163140;29;20204;-92
2023/09/25 03:49:17;;;;;;;7.22;5.53;;;10.30;99.90;;;;;;10162975;29;20706;-92
2023/09/25 03:54:19;;;;;;;6.72;5.72;;;10.40;99.90;;;;;;10148807;29;20209;-91
2023/09/25 03:59:22;;;;;;;5.13;3.80;;;10.20;99.90;;;;;;10163388;29;20268;-92
2023/09/25 04:04:25;;;;;;;5.50;5.00;;;10.70;99.90;;;;;;10195885;29;20205;-92
2023/09/25 04:09:27;;;;;;;5.88;5.28;;;10.80;99.90;;;;;;10161044;29;20233;-92
2023/09/25 04:14:34;;;;;;;6.28;5.65;;;10.90;99.90;;;;;;10161819;29;20236;-91
2023/09/25 04:19:38;;;;;;;4.50;4.10;;;10.60;99.90;;;;;;10125962;29;20255;-93
2023/09/25 04:24:41;;;;;;;7.70;5.22;;;10.80;99.90;;;;;;10154697;29;20287;-92
2023/09/25 04:29:44;;;;;;;5.63;4.53;;;10.50;99.90;;;;;;10129716;29;20204;-92
2023/09/25 04:34:47;;;;;;;6.47;5.75;;;10.40;99.90;;;;;;10101348;29;20312;-92
2023/09/25 04:39:56;;;;;;;8.07;6.57;;;10.20;99.90;;;;;;10118939;29;20591;-91
2023/09/25 04:45:05;;;;;;;5.18;4.68;;;10.10;99.90;;;;;;10119338;29;20294;-93
2023/09/25 04:50:09;;;;;;;7.57;4.53;;;10.20;99.90;;;;;;10115282;29;20260;-93
2023/09/25 04:55:12;;;;;;;6.03;4.75;;;10.20;99.90;;;;;;10137060;29;20216;-92
2023/09/25 05:00:17;;;;;;;8.93;6.28;;;10.30;99.90;;;;;;10131487;29;20256;-93
2023/09/25 05:05:20;;;;;;;7.88;5.97;;;10.30;99.90;;;;;;10120158;29;20212;-92
2023/09/25 05:10:28;;;;;;;5.10;4.60;;;10.40;99.90;;;;;;10119663;29;20217;-89
2023/09/25 05:15:36;;;;;;;7.35;5.90;;;10.50;99.90;;;;;;10107157;29;20204;-89
2023/09/25 05:20:39;;;;;;;10.25;6.10;;;10.70;99.90;;;;;;10104056;29;20233;-90
2023/09/25 05:25:42;;;;;;;7.15;5.07;;;10.90;99.90;;;;;;10081685;29;1132070;-89
2023/09/25 05:30:44;;;;;;;6.80;5.63;;;11.10;99.90;;;;;;10122298;29;20208;-89
2023/09/25 05:35:48;;;;;;;9.70;6.68;;;11.20;99.90;;;;;;10155859;29;20271;-88
2023/09/25 05:40:54;;;;;;;4.18;3.42;;;10.80;99.90;;;;;;10131098;29;20220;-89
2023/09/25 05:45:56;;;;;;;6.75;5.00;;;11.80;99.90;;;;;;10117412;29;20664;-83
2023/09/25 05:50:59;;;;;;;7.13;4.65;;;12.70;99.90;;;;;;10150950;29;20225;-84
2023/09/25 05:56:02;;;;;;;6.22;5.63;;;12.80;99.90;;;;;;10150801;29;20204;-84
2023/09/25 06:01:05;;;;;;;5.22;4.72;;;12.70;99.90;;;;;;10151341;29;20261;-84
2023/09/25 06:06:08;;;;;;;4.68;3.88;;;12.80;99.90;;;;;;10139667;29;20299;-84
2023/09/25 06:11:11;;;;;;;5.50;3.88;;;13.20;99.90;;;;;;10129061;29;20291;-82
2023/09/25 06:16:13;;;;;;;4.30;3.92;;;13.50;99.90;;;;;;10126399;29;20272;-82
2023/09/25 06:21:17;;;;;;;8.02;4.10;;;14.00;99.90;;;;;;10134331;29;20650;-82
2023/09/25 06:26:19;;;;;;;4.13;3.38;;;14.10;99.90;;;;;;10141470;29;20312;-81
2023/09/25 06:31:23;;;;;;;3.67;2.83;;;14.10;99.90;;;;;;10094381;29;20209;-83
2023/09/25 06:36:25;;;;;;;5.72;3.47;;;14.40;99.90;;;;;;10099056;29;20269;-82
2023/09/25 06:41:28;;;;;;;3.25;2.95;;;14.70;99.90;;;;;;10079242;29;20687;-83
2023/09/25 06:46:32;;;;;;;4.97;4.50;;;14.90;99.90;;;;;;10094203;29;20204;-82
2023/09/25 06:51:35;;;;;;;4.82;4.32;;;15.20;99.90;;;;;;10138306;29;20244;-82
2023/09/25 06:56:38;;;;;;;3.53;3.20;;;15.30;99.90;;;;;;10130333;29;20248;-83
2023/09/25 07:01:40;;;;;;;4.15;3.20;;;15.50;99.90;;;;;;10128866;29;20259;-82
2023/09/25 07:06:43;;;;;;;6.22;4.22;;;15.90;99.90;;;;;;10127589;29;20296;-83
2023/09/25 07:11:47;;;;;;;4.03;2.88;;;16.00;99.90;;;;;;10128923;29;20247;-83
2023/09/25 07:16:51;;;;;;;3.00;2.70;;;16.10;99.90;;;;;;10113870;29;20291;-83
2023/09/25 07:21:54;;;;;;;2.63;2.00;;;16.30;99.90;;;;;;10131080;29;20231;-83
2023/09/25 07:26:56;;;;;;;5.10;4.45;;;16.60;99.90;;;;;;10129450;29;20256;-83
2023/09/25 07:31:59;;;;;;;6.00;3.38;;;16.80;99.90;;;;;;10127278;29;20287;-83
2023/09/25 07:37:04;;;;;;;4.45;3.90;;;16.80;99.90;;;;;;10142364;29;20224;-82
2023/09/25 07:42:07;;;;;;;6.68;3.25;;;16.90;99.90;;;;;;10130794;29;20683;-83
2023/09/25 07:47:12;;;;;;;4.65;2.63;;;17.20;99.90;;;;;;10144296;29;20668;-82
2023/09/25 07:52:15;;;;;;;4.95;3.65;;;17.40;99.90;;;;;;10136218;29;20740;-83
2023/09/25 07:57:20;;;;;;;3.03;2.80;;;17.60;99.90;;;;;;10117689;29;20259;-82
2023/09/25 08:02:25;;;;;;;5.00;2.63;;;17.80;99.90;;;;;;10128542;29;20292;-82
2023/09/25 08:07:28;;;;;;;4.38;2.83;;;18.10;99.80;;;;;;10127894;29;20619;-82
2023/09/25 08:12:31;;;;;;;2.38;1.88;;;18.20;99.80;;;;;;10137933;29;20687;-82
2023/09/25 08:17:34;;;;;;;4.47;4.03;;;18.50;99.10;;;;;;10142735;29;20742;-82
2023/09/25 08:22:38;;;;;;;2.13;1.73;;;18.70;98.60;;;;;;10144433;29;20235;-82
2023/09/25 08:27:41;;;;;;;5.47;2.00;;;18.80;97.80;;;;;;10153332;29;20240;-82
2023/09/25 08:32:45;;;;;;;3.20;1.90;;;19.10;96.80;;;;;;10124450;29;20212;-82
2023/09/25 08:37:47;;;;;;;4.78;2.28;;;19.30;99.90;;;;;;10141748;29;20264;-82
2023/09/25 08:42:52;;;;;;;1.40;1.30;;;;;;;;;;10142676;29;20201;-82
2023/09/25 08:48:16;;;;;;;2.72;2.10;;;19.60;94.70;;;;;;10127498;29;20751;-82
2023/09/25 08:53:20;;;;;;;2.10;1.80;;;19.80;97.20;;;;;;10142981;29;20216;-82
2023/09/25 08:58:24;;;;;;;1.55;1.45;;;20.00;92.20;;;;;;10134134;29;20704;-81
2023/09/25 09:03:27;;;;;;;2.30;2.10;;;20.10;92.10;;;;;;10139218;29;20204;-82
2023/09/25 09:08:31;;;;;;;3.17;2.38;;;20.50;91.40;;;;;;10108408;29;20237;-82
2023/09/25 09:13:46;;;;;;;2.40;1.63;;;20.50;90.80;;;;;;10140830;29;20208;-82
2023/09/25 09:18:49;;;;;;;4.93;2.10;;;20.60;88.90;;;;;;10140314;29;20667;-83
2023/09/25 09:23:56;;;;;;;2.40;1.73;;;20.80;90.10;;;;;;10136548;29;20232;-83
2023/09/25 09:28:59;;;;;;;3.97;2.97;;;20.90;89.50;;;;;;10110500;29;20627;-83
2023/09/25 09:34:03;;;;;;;2.45;2.25;;;21.00;88.60;;;;;;10148253;29;20223;-83
2023/09/25 09:39:10;;;;;;;4.93;4.15;;;21.10;87.50;;;;;;10121681;29;20295;-83
2023/09/25 09:44:13;;;;;;;5.15;3.58;;;21.10;88.70;;;;;;10164367;29;20204;-84
2023/09/25 09:49:21;;;;;;;3.85;3.30;;;21.10;86.80;;;;;;10157721;29;20213;-84
2023/09/25 09:54:25;;;;;;;3.20;2.88;;;21.20;84.60;;;;;;10131311;29;20645;-84
2023/09/25 09:59:27;;;;;;;4.00;3.28;;;21.10;86.00;;;;;;10130314;29;20266;-85
2023/09/25 10:04:31;;;;;;;6.13;3.15;;;21.10;85.40;;;;;;10126701;29;20577;-89
2023/09/25 10:09:34;;;;;;;4.90;2.17;;;21.30;85.50;;;;;;10128559;29;20280;-89
2023/09/25 10:14:43;;;;;;;5.25;2.08;;;21.50;85.10;;;;;;10141176;29;20208;-92
2023/09/25 10:19:48;;;;;;;7.95;3.03;;;21.60;83.00;;;;;;10170414;29;20236;-92
2023/09/25 10:25:09;;;;;;;2.92;2.20;;;21.60;83.10;;;;;;10169437;29;20209;-93
2023/09/25 10:30:15;;;;;;;5.45;2.47;;;21.60;82.00;;;;;;10175260;29;20184;-89
2023/09/25 10:35:38;;;;;;;2.63;2.40;;;22.00;82.70;;;;;;10168873;29;20191;-91
2023/09/25 10:40:45;;;;;;;3.28;1.80;;;21.80;78.70;;;;;;10182793;29;20232;-91
2023/09/25 10:45:48;;;;;;;2.95;1.90;;;22.00;79.20;;;;;;10185529;29;20200;-93
2023/09/25 10:50:51;;;;;;;2.97;1.98;;;22.10;77.70;;;;;;10151829;29;20189;-90
2023/09/25 10:55:54;;;;;;;2.42;1.33;;;22.10;77.20;;;;;;10184345;29;20184;-90
2023/09/25 11:00:57;;;;;;;2.38;1.80;;;22.30;77.50;;;;;;10183999;29;20257;-90
2023/09/25 11:06:00;;;;;;;2.60;2.40;;;22.30;75.50;;;;;;10184389;29;20256;-90
2023/09/25 11:11:03;;;;;;;3.90;2.15;;;22.40;73.00;;;;;;10165437;29;20200;-92
2023/09/25 11:16:06;;;;;;;1.90;1.70;;;22.40;64.50;;;;;;10166238;29;20204;-93
2023/09/25 11:21:10;;;;;;;2.47;2.13;;;22.30;70.70;;;;;;10151608;29;20208;-92
2023/09/25 11:26:13;;;;;;;2.22;1.90;;;22.50;67.50;;;;;;10182774;29;20208;-92
2023/09/25 11:31:16;;;;;;;1.70;1.52;;;22.60;69.00;;;;;;10166627;29;20217;-91
2023/09/25 11:36:19;;;;;;;2.30;1.70;;;22.50;69.80;;;;;;10194221;29;20199;-90
2023/09/25 11:41:21;;;;;;;3.15;2.15;;;22.50;68.00;;;;;;10187780;29;20216;-90
2023/09/25 11:46:24;;;;;;;1.45;1.35;;;22.40;61.90;;;;;;10166336;29;20217;-90
2023/09/25 11:51:27;;;;;;;1.60;1.50;;;22.60;68.20;;;;;;10173759;29;20542;-89
2023/09/25 11:56:32;;;;;;;6.68;2.45;;;22.70;67.70;;;;;;10212036;29;20189;-89
2023/09/25 12:01:34;;;;;;;1.98;1.63;;;22.80;67.90;;;;;;10156510;29;20244;-89
2023/09/25 12:06:37;;;;;;;2.70;2.30;;;22.80;66.70;;;;;;10178426;29;20192;-88
2023/09/25 12:11:41;;;;;;;1.77;1.63;;;22.70;66.70;;;;;;10183997;29;20213;-89
2023/09/25 12:16:44;;;;;;;2.80;2.47;;;22.80;64.50;;;;;;10164289;29;20205;-89
2023/09/25 12:21:47;;;;;;;1.80;1.30;;;22.70;62.00;;;;;;10169402;29;20216;-89
2023/09/25 12:26:50;;;;;;;6.97;1.92;;;22.70;63.40;;;;;;10208410;29;20212;-90
2023/09/25 12:31:52;;;;;;;2.63;1.75;;;22.60;65.20;;;;;;10148996;29;20183;-90
2023/09/25 12:36:55;;;;;;;2.95;2.33;;;22.70;62.80;;;;;;10187924;29;20216;-89
2023/09/25 12:41:58;;;;;;;1.92;1.75;;;22.80;59.90;;;;;;10185134;29;20252;-89
2023/09/25 12:47:22;;;;;;;3.47;2.15;;;23.00;63.00;;;;;;10154102;29;20181;-91
2023/09/25 12:52:24;;;;;;;3.28;2.42;;;23.00;58.00;;;;;;10184319;29;20216;-91
2023/09/25 12:57:27;;;;;;;2.80;1.52;;;23.00;60.30;;;;;;10152689;29;20222;-91
2023/09/25 13:02:30;;;;;;;2.08;1.70;;;23.00;58.60;;;;;;10171049;29;20224;-90
2023/09/25 13:07:33;;;;;;;1.73;1.63;;;23.10;62.30;;;;;;10152246;29;20208;-91
2023/09/25 13:12:36;;;;;;;2.30;1.63;;;23.10;61.80;;;;;;10186904;29;20180;-91
2023/09/25 13:17:38;;;;;;;2.35;1.48;;;23.10;61.90;;;;;;10168249;29;20184;-90
2023/09/25 13:22:42;;;;;;;0.90;0.90;;;23.10;61.50;;;;;;10174920;29;20224;-90
2023/09/25 13:27:49;;;;;;;3.97;1.95;;;23.10;63.00;;;;;;10190491;29;20212;-91
2023/09/25 13:32:52;;;;;;;3.30;2.47;;;23.10;61.90;;;;;;10189641;29;20192;-91
2023/09/25 13:37:55;;;;;;;1.90;1.50;;;23.10;59.10;;;;;;10174324;29;20209;-91
2023/09/25 13:42:58;;;;;;;2.08;1.85;;;23.00;58.30;;;;;;10190129;29;20217;-91
2023/09/25 13:48:00;;;;;;;1.98;1.80;;;22.90;56.10;;;;;;10158569;29;20189;-91
2023/09/25 13:53:03;;;;;;;10.07;1.92;;;22.90;61.30;;;;;;10188483;29;20193;-89
2023/09/25 13:58:06;;;;;;;7.10;2.75;;;22.90;59.80;;;;;;10153812;29;20200;-90
2023/09/25 14:03:08;;;;;;;4.20;2.85;;;22.80;59.40;;;;;;10170599;29;20283;-90
2023/09/25 14:08:11;;;;;;;3.08;2.65;;;22.80;60.50;;;;;;10134069;29;20209;-90
2023/09/25 14:13:15;;;;;;;3.15;2.50;;;22.70;61.20;;;;;;10132817;29;20216;-91
2023/09/25 14:18:18;;;;;;;5.22;2.65;;;22.60;62.30;;;;;;10135878;29;20208;-92
2023/09/25 14:23:21;;;;;;;3.88;2.53;;;22.60;63.20;;;;;;10153816;29;20232;-92
2023/09/25 14:28:24;;;;;;;6.63;2.60;;;22.60;62.80;;;;;;10139745;29;20204;-91
2023/09/25 14:33:27;;;;;;;6.47;2.88;;;22.50;64.50;;;;;;10151552;29;20204;-90
2023/09/25 14:38:30;;;;;;;6.95;3.10;;;22.50;62.80;;;;;;10147146;29;20259;-90
2023/09/25 14:43:33;;;;;;;3.35;2.45;;;22.20;62.30;;;;;;10114126;29;20212;-89
2023/09/25 14:48:36;;;;;;;3.35;2.90;;;22.10;63.70;;;;;;10148956;29;20720;-90
2023/09/25 14:53:40;;;;;;;7.95;4.13;;;21.80;66.80;;;;;;10127535;29;20257;-90
2023/09/25 14:58:42;;;;;;;4.82;3.00;;;21.80;69.40;;;;;;10125818;29;20628;-90
2023/09/25 15:03:45;;;;;;;6.47;3.70;;;21.80;70.90;;;;;;10125257;29;20200;-90
2023/09/25 15:08:48;;;;;;;5.60;3.17;;;21.60;72.30;;;;;;10141653;29;20244;-91
2023/09/25 15:13:50;;;;;;;4.18;3.33;;;21.60;74.00;;;;;;10173594;29;20263;-90
2023/09/25 15:18:53;;;;;;;3.47;2.75;;;21.40;78.60;;;;;;10147236;29;20204;-90
2023/09/25 15:23:56;;;;;;;3.25;2.67;;;21.30;78.80;;;;;;10179210;29;20239;-91
2023/09/25 15:28:59;;;;;;;2.88;2.60;;;21.00;79.50;;;;;;10130145;29;20263;-90
2023/09/25 15:34:01;;;;;;;6.15;2.92;;;20.90;82.80;;;;;;10144471;29;20237;-90
2023/09/25 15:39:04;;;;;;;7.93;2.97;;;20.80;84.10;;;;;;10123388;29;20271;-90
2023/09/25 15:44:07;;;;;;;3.95;2.90;;;20.70;88.60;;;;;;9802443;29;9999659;-91
2023/09/25 15:49:09;;;;;;;10.95;2.97;;;20.60;90.50;;;;;;10149276;29;20370;-90
2023/09/25 15:54:12;;;;;;;8.23;3.40;;;20.50;91.70;;;;;;10131735;29;20209;-90
2023/09/25 15:59:15;;;;;;;15.82;4.25;;;20.40;91.50;;;;;;10122557;29;20224;-90
2023/09/25 16:04:17;;;;;;;9.32;3.63;;;20.30;91.80;;;;;;10126538;29;20301;-91
2023/09/25 16:09:20;;;;;;;4.78;2.92;;;20.20;92.20;;;;;;10139317;29;20244;-91
2023/09/25 16:14:30;;;;;;;7.25;3.03;;;20.00;93.40;;;;;;10094473;29;20213;-90
2023/09/25 16:19:33;;;;;;;8.65;3.60;;;19.80;94.00;;;;;;10099364;29;20280;-84
2023/09/25 16:24:35;;;;;;;5.22;2.97;;;20.00;97.30;;;;;;10112137;29;20275;-85
2023/09/25 16:29:38;;;;;;;5.05;3.70;;;19.60;96.00;;;;;;10112181;29;20312;-84
2023/09/25 16:34:41;;;;;;;7.20;3.53;;;19.50;96.60;;;;;;10127736;29;20248;-84
2023/09/25 16:39:44;;;;;;;7.80;3.65;;;19.30;97.00;;;;;;10128024;29;20303;-84
2023/09/25 16:44:46;;;;;;;4.28;3.40;;;19.20;97.50;;;;;;10128172;29;20236;-85
2023/09/25 16:49:49;;;;;;;7.63;3.60;;;19.10;98.30;;;;;;10134265;29;20235;-84
2023/09/25 16:54:51;;;;;;;8.55;3.60;;;19.00;98.70;;;;;;10137293;29;20256;-84
2023/09/25 16:59:54;;;;;;;7.65;4.35;;;18.90;99.00;;;;;;10137879;29;20259;-84
2023/09/25 17:04:57;;;;;;;7.22;3.83;;;18.80;99.50;;;;;;10118695;29;20304;-85
2023/09/25 17:10:05;;;;;;;7.50;4.28;;;18.70;99.90;;;;;;10135564;29;20212;-84
2023/09/25 17:15:08;;;;;;;9.73;3.88;;;18.60;99.90;;;;;;10155363;29;20248;-90
2023/09/25 17:20:12;;;;;;;7.72;2.83;;;18.60;99.90;;;;;;10131874;29;20268;-89
2023/09/25 17:25:15;;;;;;;9.38;4.45;;;18.80;99.90;;;;;;10116879;29;20271;-87
2023/09/25 17:30:21;;;;;;;5.13;3.30;;;18.90;99.90;;;;;;10125334;29;20247;-89
2023/09/25 17:35:24;;;;;;;5.15;3.88;;;18.90;99.90;;;;;;10107689;29;20236;-89
2023/09/25 17:40:27;;;;;;;9.43;4.15;;;18.70;99.90;;;;;;10135704;29;20404;-90
2023/09/25 17:45:30;;;;;;;5.65;3.85;;;18.60;99.90;;;;;;10107446;29;20236;-91
2023/09/25 17:50:33;;;;;;;6.00;4.13;;;18.50;99.90;;;;;;10128828;29;20264;-90
2023/09/25 17:55:35;;;;;;;8.05;3.70;;;18.50;99.90;;;;;;10119195;29;20235;-90
2023/09/25 18:00:38;;;;;;;5.88;3.88;;;18.40;99.90;;;;;;10159269;29;20323;-91
2023/09/25 18:05:41;;;;;;;6.85;3.95;;;18.40;99.90;;;;;;10114148;29;20295;-90
2023/09/25 18:10:43;;;;;;;6.30;4.20;;;18.30;99.90;;;;;;10114069;29;20295;-91
2023/09/25 18:15:51;;;;;;;4.50;4.10;;;18.30;99.90;;;;;;10162129;29;20367;-91
2023/09/25 18:20:54;;;;;;;9.77;5.43;;;18.20;99.90;;;;;;10126050;29;20256;-91
2023/09/25 18:26:09;;;;;;;7.57;4.13;;;18.20;99.90;;;;;;10147874;29;20319;-91
2023/09/25 18:31:13;;;;;;;4.53;4.13;;;18.10;99.90;;;;;;10103934;29;20244;-91
2023/09/25 18:36:16;;;;;;;5.50;4.22;;;18.10;99.90;;;;;;10109613;29;20268;-91
2023/09/25 18:41:22;;;;;;;6.20;4.78;;;18.10;99.90;;;;;;10138330;29;20260;-91
2023/09/25 18:46:28;;;;;;;5.70;4.68;;;18.10;99.90;;;;;;10130764;29;20264;-91
2023/09/25 18:58:29;;;;;;;7.65;4.78;;;18.00;99.90;;;;;;9970703;29;20682;-91
2023/09/25 19:03:32;;;;;;;5.97;4.78;;;17.90;99.90;;;;;;9970326;29;20262;-91
2023/09/25 19:08:35;;;;;;;6.10;4.93;;;18.00;99.90;;;;;;9959946;29;20303;-90
2023/09/25 19:13:38;;;;;;;4.57;3.20;;;18.00;99.90;;;;;;9972506;29;20767;-91
2023/09/25 19:18:44;;;;;;;3.30;3.00;;;18.10;99.90;;;;;;9983663;29;20291;-91
2023/09/25 19:23:47;;;;;;;3.10;2.80;;;18.30;99.90;;;;;;9957527;29;20325;-91
2023/09/25 19:28:51;;;;;;;3.55;3.22;;;18.60;99.90;;;;;;9955146;29;20975;-90
2023/09/25 19:33:54;;;;;;;3.22;2.92;;;18.80;99.90;;;;;;10082808;29;20243;-90
2023/09/25 19:39:04;;;;;;;3.22;2.92;;;18.90;99.90;;;;;;10123714;29;20228;-90
2023/09/25 19:44:07;;;;;;;3.97;3.58;;;19.00;99.90;;;;;;10095865;29;20256;-91
2023/09/25 19:49:10;;;;;;;6.90;2.80;;;19.10;99.90;;;;;;10111316;29;20628;-91
2023/09/25 19:54:53;;;;;;;4.10;2.78;;;19.10;99.90;;;;;;10141559;29;20271;-94
2023/09/25 20:00:35;;;;;;;3.70;3.33;;;19.10;99.90;;;;;;10109214;29;20267;-89
2023/09/25 20:05:48;;;;;;;4.25;3.55;;;19.10;99.90;;;;;;10113454;29;20575;-90
2023/09/25 20:10:51;;;;;;;5.75;5.05;;;19.10;99.90;;;;;;10127939;29;20264;-91
2023/09/25 20:15:53;;;;;;;4.55;4.15;;;19.10;99.80;;;;;;10113260;29;20212;-92
2023/09/25 20:20:58;;;;;;;3.97;3.58;;;19.10;99.90;;;;;;10120112;29;20282;-91
2023/09/25 20:26:10;;;;;;;3.15;2.63;;;19.10;99.90;;;;;;10098079;29;20257;-91
2023/09/25 20:31:12;;;;;;;4.88;4.03;;;19.00;99.90;;;;;;10088253;29;20655;-91
2023/09/25 20:36:18;;;;;;;5.45;4.30;;;18.90;99.70;;;;;;10099356;29;20240;-91
2023/09/25 20:41:30;;;;;;;4.00;3.58;;;18.90;99.60;;;;;;10103987;29;20353;-93
2023/09/25 20:46:33;;;;;;;8.70;5.32;;;18.90;99.90;;;;;;10104251;29;20299;-93
2023/09/25 20:51:36;;;;;;;6.70;4.90;;;18.90;98.90;;;;;;10129509;29;20232;-91
2023/09/25 20:56:39;;;;;;;3.53;2.95;;;18.80;99.30;;;;;;10102142;29;20640;-91
2023/09/25 21:01:45;;;;;;;7.72;5.88;;;18.80;99.90;;;;;;10079404;29;20752;-92
2023/09/25 21:06:48;;;;;;;5.95;5.13;;;18.70;99.60;;;;;;10101910;29;20232;-92
2023/09/25 21:12:00;;;;;;;7.05;5.75;;;18.60;99.70;;;;;;10114409;29;20319;-91
2023/09/25 21:17:15;;;;;;;7.63;5.90;;;18.60;99.90;;;;;;10097581;29;20352;-91
2023/09/25 21:22:27;;;;;;;6.93;6.05;;;18.70;99.60;;;;;;10081912;29;20268;-94
2023/09/25 21:27:30;;;;;;;9.15;5.63;;;18.60;99.90;;;;;;10128808;29;20327;-92
2023/09/25 21:32:35;;;;;;;9.30;5.65;;;18.60;99.90;;;;;;10141157;29;20213;-94
2023/09/25 21:37:41;;;;;;;6.57;5.57;;;18.70;99.90;;;;;;10131863;29;20968;-91
2023/09/25 21:42:49;;;;;;;5.70;5.20;;;18.50;99.90;;;;;;10121636;29;20228;-92
2023/09/25 21:48:09;;;;;;;5.07;3.95;;;18.50;99.90;;;;;;10124600;29;20211;-92
2023/09/25 21:53:17;;;;;;;7.18;5.88;;;18.70;99.90;;;;;;10140143;29;20207;-92
2023/09/25 21:58:24;;;;;;;6.25;5.57;;;18.50;99.90;;;;;;10121585;29;20292;-91
2023/09/25 22:03:26;;;;;;;11.30;6.30;;;18.40;99.90;;;;;;10120909;29;20255;-92
2023/09/25 22:08:29;;;;;;;10.93;5.30;;;18.20;99.90;;;;;;10145025;29;20255;-93
2023/09/25 22:13:35;;;;;;;4.88;3.72;;;18.10;99.90;;;;;;10127980;29;20244;-92
2023/09/25 22:18:43;;;;;;;4.00;3.47;;;18.30;99.90;;;;;;10129249;29;20244;-92
2023/09/25 22:23:46;;;;;;;6.38;5.20;;;18.50;99.90;;;;;;10116499;29;20272;-90
2023/09/25 22:28:48;;;;;;;8.65;6.68;;;18.40;99.90;;;;;;10131482;29;20229;-92
2023/09/25 22:33:52;;;;;;;6.13;5.53;;;18.50;99.90;;;;;;10130502;29;20287;-92
2023/09/25 22:38:55;;;;;;;6.80;5.88;;;18.50;99.90;;;;;;10108403;29;20659;-93
2023/09/25 22:43:57;;;;;;;12.25;7.00;;;18.30;99.90;;;;;;10113204;29;20311;-90
2023/09/25 22:49:00;;;;;;;9.65;6.00;;;18.20;99.90;;;;;;10119035;29;20253;-93
2023/09/25 22:54:04;;;;;;;7.00;4.72;;;18.10;99.90;;;;;;10105749;29;20212;-94
2023/09/25 22:59:06;;;;;;;6.70;5.90;;;18.10;99.90;;;;;;10086695;29;20253;-92
2023/09/25 23:04:09;;;;;;;7.95;6.70;;;18.30;99.90;;;;;;10116930;29;20251;-93
2023/09/25 23:09:14;;;;;;;6.85;5.80;;;18.10;99.90;;;;;;10131818;29;20645;-92
2023/09/25 23:14:16;;;;;;;6.75;4.32;;;18.20;99.90;;;;;;10098782;29;20216;-92
2023/09/25 23:19:19;;;;;;;6.30;5.70;;;18.20;99.90;;;;;;10085836;29;20237;-93
2023/09/25 23:24:22;;;;;;;6.60;6.00;;;18.30;99.90;;;;;;10114633;29;20268;-93
2023/09/25 23:29:25;;;;;;;5.97;5.38;;;18.10;99.90;;;;;;10098635;29;20631;-93
2023/09/25 23:34:28;;;;;;;6.70;5.32;;;18.10;99.90;;;;;;10089831;29;20236;-90
2023/09/25 23:39:30;;;;;;;5.88;3.55;;;18.10;99.90;;;;;;10080319;29;20236;-92
2023/09/25 23:44:33;;;;;;;5.57;5.07;;;18.10;99.90;;;;;;10130349;29;20303;-93
2023/09/25 23:49:36;;;;;;;6.97;5.95;;;18.20;99.90;;;;;;10113405;29;20208;-92
2023/09/25 23:54:38;;;;;;;6.80;4.95;;;18.20;99.90;;;;;;10083882;29;20375;-91
2023/09/25 23:59:41;;;;;;;7.93;5.07;;;18.10;99.90;;;;;;10127333;29;20236;-93
